createdAt,value
2017-10-29T00:01:51.848Z,7.50
2017-10-29T00:04:19.347Z,8.30
2017-10-29T00:06:46.795Z,6.00
2017-10-29T00:09:14.291Z,5.63
2017-10-29T00:11:42.512Z,4.87
2017-10-29T00:14:10.034Z,4.80
2017-10-29T00:16:38.627Z,3.77
2017-10-29T00:19:06.916Z,3.97
2017-10-29T00:21:34.348Z,3.40
2017-10-29T00:24:01.784Z,4.00
2017-10-29T00:26:29.282Z,4.27
2017-10-29T00:28:57.525Z,4.83
2017-10-29T00:31:24.991Z,5.80
2017-10-29T00:33:52.478Z,5.00
2017-10-29T00:36:21.462Z,5.10
2017-10-29T00:38:49.786Z,6.40
2017-10-29T00:41:17.238Z,5.83
2017-10-29T00:43:44.730Z,7.17
2017-10-29T00:46:12.184Z,6.37
2017-10-29T00:48:39.739Z,6.27
2017-10-29T00:51:07.216Z,5.23
2017-10-29T00:53:34.671Z,5.73
2017-10-29T00:56:02.161Z,5.73
2017-10-29T00:58:29.612Z,5.53
2017-10-29T01:00:57.095Z,4.83
2017-10-29T01:03:24.544Z,4.20
2017-10-29T01:05:52.002Z,3.77
2017-10-29T01:08:19.508Z,3.27
2017-10-29T01:10:47.761Z,2.70
2017-10-29T01:13:15.243Z,2.57
2017-10-29T01:15:42.697Z,2.60
2017-10-29T01:18:10.190Z,2.00
2017-10-29T01:20:38.400Z,1.07
2017-10-29T01:23:05.878Z,1.80
2017-10-29T01:25:33.336Z,1.90
2017-10-29T01:28:00.882Z,1.60
2017-10-29T01:30:28.367Z,1.70
2017-10-29T01:32:55.831Z,1.40
2017-10-29T01:35:23.341Z,1.03
2017-10-29T01:37:51.587Z,1.40
2017-10-29T01:42:46.498Z,1.20
2017-10-29T01:45:14.018Z,1.40
2017-10-29T01:47:41.525Z,1.70
2017-10-29T01:50:08.992Z,1.30
2017-10-29T01:52:36.446Z,1.30
2017-10-29T01:55:03.940Z,1.10
2017-10-29T01:57:31.474Z,1.10
2017-10-29T01:59:58.912Z,1.30
2017-10-29T02:02:26.360Z,1.00
2017-10-29T02:04:53.866Z,1.20
2017-10-29T02:07:21.303Z,1.17
2017-10-29T02:09:48.762Z,1.13
2017-10-29T02:12:16.245Z,1.60
2017-10-29T02:14:43.708Z,1.70
2017-10-29T02:17:11.167Z,1.40
2017-10-29T02:19:39.378Z,1.47
2017-10-29T02:22:06.894Z,2.10
2017-10-29T02:24:34.375Z,1.20
2017-10-29T02:27:01.838Z,2.20
2017-10-29T02:29:29.337Z,1.97
2017-10-29T02:31:58.333Z,3.07
2017-10-29T02:34:25.763Z,2.83
2017-10-29T02:36:53.333Z,2.30
2017-10-29T02:39:20.815Z,2.70
2017-10-29T02:41:48.305Z,2.67
2017-10-29T02:44:16.557Z,2.30
2017-10-29T02:46:44.030Z,2.80
2017-10-29T02:49:11.476Z,3.67
2017-10-29T02:51:42.010Z,2.60
2017-10-29T02:54:10.235Z,2.17
2017-10-29T02:56:37.717Z,2.93
2017-10-29T02:59:05.201Z,2.50
2017-10-29T03:01:32.725Z,3.20
2017-10-29T03:04:00.199Z,3.33
2017-10-29T03:06:27.682Z,1.97
2017-10-29T03:08:55.189Z,2.27
2017-10-29T03:11:23.419Z,1.00
2017-10-29T03:13:50.900Z,1.50
2017-10-29T03:16:18.397Z,0.80
2017-10-29T03:18:46.637Z,2.07
2017-10-29T03:21:14.122Z,1.53
2017-10-29T03:23:41.615Z,1.80
2017-10-29T03:26:09.225Z,1.67
2017-10-29T03:28:36.687Z,2.13
2017-10-29T03:31:04.171Z,1.23
2017-10-29T03:33:31.670Z,0.80
2017-10-29T03:35:59.947Z,1.47
2017-10-29T03:38:28.157Z,1.23
2017-10-29T03:40:55.624Z,1.97
2017-10-29T03:43:23.110Z,2.07
2017-10-29T03:45:50.576Z,1.60
2017-10-29T03:48:18.821Z,2.10
2017-10-29T03:50:46.286Z,1.20
2017-10-29T03:53:13.758Z,1.93
2017-10-29T03:55:41.213Z,1.57
2017-10-29T03:58:08.833Z,0.93
2017-10-29T04:00:37.076Z,4.13
2017-10-29T04:03:04.926Z,1.33
2017-10-29T04:05:32.340Z,1.13
2017-10-29T04:08:00.576Z,1.50
2017-10-29T04:10:28.069Z,0.80
2017-10-29T04:12:55.507Z,1.53
2017-10-29T04:15:22.984Z,1.80
2017-10-29T04:17:50.453Z,1.73
2017-10-29T04:20:17.939Z,2.60
2017-10-29T04:22:46.198Z,1.37
2017-10-29T04:25:13.663Z,1.53
2017-10-29T04:27:41.117Z,1.93
2017-10-29T04:30:08.554Z,1.13
2017-10-29T04:32:36.051Z,1.83
2017-10-29T04:35:03.527Z,1.53
2017-10-29T04:37:31.852Z,1.83
2017-10-29T04:40:00.096Z,1.37
2017-10-29T04:42:28.308Z,1.53
2017-10-29T04:44:55.822Z,0.93
2017-10-29T04:47:24.114Z,2.33
2017-10-29T04:49:51.570Z,1.53
2017-10-29T04:52:18.977Z,1.57
2017-10-29T04:54:46.480Z,2.00
2017-10-29T04:57:13.955Z,1.30
2017-10-29T04:59:41.435Z,1.83
2017-10-29T05:02:09.719Z,1.70
2017-10-29T05:04:37.146Z,1.40
2017-10-29T05:07:06.127Z,3.67
2017-10-29T05:09:33.581Z,2.10
2017-10-29T05:12:01.084Z,2.40
2017-10-29T05:14:28.525Z,1.53
2017-10-29T05:16:55.976Z,1.57
2017-10-29T05:19:23.470Z,1.80
2017-10-29T05:21:51.707Z,1.30
2017-10-29T05:24:19.169Z,1.43
2017-10-29T05:26:46.671Z,1.57
2017-10-29T05:29:14.152Z,2.10
2017-10-29T05:31:42.390Z,3.07
2017-10-29T05:34:09.876Z,2.20
2017-10-29T05:36:38.088Z,2.17
2017-10-29T05:39:05.547Z,2.00
2017-10-29T05:41:33.016Z,1.67
2017-10-29T05:44:00.467Z,1.60
2017-10-29T05:46:28.016Z,1.80
2017-10-29T05:48:56.260Z,2.50
2017-10-29T05:51:23.701Z,2.83
2017-10-29T05:53:51.178Z,2.30
2017-10-29T05:56:18.695Z,2.57
2017-10-29T05:58:46.198Z,1.27
2017-10-29T06:01:13.653Z,2.33
2017-10-29T06:03:41.912Z,2.40
2017-10-29T06:06:12.398Z,3.00
2017-10-29T06:08:39.833Z,2.07
2017-10-29T06:11:07.311Z,2.53
2017-10-29T06:13:34.759Z,2.50
2017-10-29T06:16:02.213Z,3.43
2017-10-29T06:18:29.680Z,4.13
2017-10-29T06:20:57.189Z,3.30
2017-10-29T06:23:25.431Z,3.10
2017-10-29T06:25:52.987Z,2.50
2017-10-29T06:28:20.433Z,2.00
2017-10-29T06:30:47.932Z,2.00
2017-10-29T06:33:15.367Z,2.70
2017-10-29T06:35:42.849Z,2.40
2017-10-29T06:38:10.344Z,2.60
2017-10-29T06:40:38.296Z,2.00
2017-10-29T06:43:06.530Z,2.07
2017-10-29T06:45:33.977Z,3.87
2017-10-29T06:48:02.207Z,2.43
2017-10-29T06:50:29.670Z,2.50
2017-10-29T06:52:57.292Z,2.30
2017-10-29T06:55:25.549Z,2.57
2017-10-29T06:57:53.074Z,2.80
2017-10-29T07:00:20.562Z,2.03
2017-10-29T07:02:48.025Z,2.50
2017-10-29T07:05:16.280Z,2.33
2017-10-29T07:07:43.759Z,2.30
2017-10-29T07:10:11.293Z,2.07
2017-10-29T07:12:39.596Z,2.60
2017-10-29T07:15:07.075Z,2.60
2017-10-29T07:17:36.074Z,2.40
2017-10-29T07:20:05.095Z,2.63
2017-10-29T07:22:33.314Z,3.60
2017-10-29T07:25:00.978Z,2.93
2017-10-29T07:27:28.445Z,3.30
2017-10-29T07:29:55.895Z,2.97
2017-10-29T07:32:23.442Z,3.30
2017-10-29T07:34:51.729Z,3.47
2017-10-29T07:37:19.216Z,4.20
2017-10-29T07:39:46.676Z,2.40
2017-10-29T07:42:14.196Z,2.40
2017-10-29T07:44:42.479Z,3.90
2017-10-29T07:47:10.939Z,2.60
2017-10-29T07:49:39.915Z,3.40
2017-10-29T07:52:07.402Z,2.53
2017-10-29T07:54:34.919Z,2.37
2017-10-29T07:57:02.404Z,3.17
2017-10-29T07:59:29.915Z,2.07
2017-10-29T08:01:58.150Z,1.90
2017-10-29T08:04:25.610Z,3.00
2017-10-29T08:06:53.139Z,2.40
2017-10-29T08:09:20.561Z,2.40
2017-10-29T08:11:48.097Z,2.17
2017-10-29T08:14:15.520Z,2.20
2017-10-29T08:16:42.978Z,3.33
2017-10-29T08:19:10.460Z,2.37
2017-10-29T08:21:37.955Z,2.70
2017-10-29T08:24:05.428Z,2.40
2017-10-29T08:26:32.925Z,2.37
2017-10-29T08:29:01.187Z,2.00
2017-10-29T08:31:29.418Z,2.20
2017-10-29T08:33:56.893Z,1.93
2017-10-29T08:36:24.492Z,2.87
2017-10-29T08:38:52.762Z,2.53
2017-10-29T08:41:20.382Z,1.83
2017-10-29T08:43:47.870Z,2.63
2017-10-29T08:46:15.364Z,2.80
2017-10-29T08:48:42.810Z,1.67
2017-10-29T08:51:10.343Z,2.17
2017-10-29T08:53:37.834Z,2.00
2017-10-29T08:56:06.817Z,1.60
2017-10-29T08:58:34.354Z,2.20
2017-10-29T09:01:01.857Z,1.77
2017-10-29T09:03:30.099Z,2.30
2017-10-29T09:05:57.579Z,2.93
2017-10-29T09:08:25.059Z,2.57
2017-10-29T09:10:52.639Z,2.53
2017-10-29T09:13:20.135Z,4.20
2017-10-29T09:15:48.360Z,2.27
2017-10-29T09:18:15.824Z,1.93
2017-10-29T09:20:43.347Z,2.70
2017-10-29T09:23:11.588Z,2.73
2017-10-29T09:25:39.050Z,1.93
2017-10-29T09:28:06.567Z,1.73
2017-10-29T09:30:34.041Z,2.10
2017-10-29T09:33:01.541Z,3.43
2017-10-29T09:35:28.993Z,2.23
2017-10-29T09:37:56.672Z,1.70
2017-10-29T09:40:24.900Z,3.27
2017-10-29T09:42:52.377Z,2.87
2017-10-29T09:45:19.880Z,3.17
2017-10-29T09:47:47.579Z,2.70
2017-10-29T09:50:15.072Z,2.30
2017-10-29T09:52:42.531Z,1.43
2017-10-29T09:55:09.984Z,2.57
2017-10-29T09:57:37.527Z,1.43
2017-10-29T10:00:05.745Z,3.23
2017-10-29T10:02:33.243Z,1.50
2017-10-29T10:05:01.501Z,1.57
2017-10-29T10:07:29.022Z,1.77
2017-10-29T10:09:56.529Z,2.20
2017-10-29T10:12:23.992Z,2.20
2017-10-29T10:14:51.511Z,2.40
2017-10-29T10:17:18.988Z,2.10
2017-10-29T10:19:46.473Z,2.20
2017-10-29T10:22:13.959Z,1.90
2017-10-29T10:24:41.417Z,1.67
2017-10-29T10:27:08.907Z,1.20
2017-10-29T10:29:36.372Z,2.20
2017-10-29T10:32:04.626Z,1.53
2017-10-29T10:34:32.947Z,3.13
2017-10-29T10:37:00.428Z,2.93
2017-10-29T10:39:27.925Z,1.83
2017-10-29T10:41:55.419Z,1.57
2017-10-29T10:44:23.701Z,1.50
2017-10-29T10:46:51.938Z,3.00
2017-10-29T10:49:19.436Z,2.00
2017-10-29T10:51:47.670Z,2.37
2017-10-29T10:54:15.146Z,3.37
2017-10-29T10:56:42.630Z,2.13
2017-10-29T10:59:10.108Z,2.23
2017-10-29T11:01:38.405Z,1.20
2017-10-29T11:04:07.373Z,1.83
2017-10-29T11:06:35.596Z,2.07
2017-10-29T11:09:03.049Z,1.87
2017-10-29T11:11:30.498Z,1.40
2017-10-29T11:13:58.181Z,4.40
2017-10-29T11:16:25.652Z,1.83
2017-10-29T11:18:53.343Z,1.40
2017-10-29T11:21:21.503Z,3.30
2017-10-29T11:23:48.988Z,2.00
2017-10-29T11:26:16.457Z,1.90
2017-10-29T11:28:45.466Z,1.20
2017-10-29T11:31:12.924Z,1.27
2017-10-29T11:33:41.201Z,1.60
2017-10-29T11:36:08.664Z,1.53
2017-10-29T11:38:36.188Z,1.90
2017-10-29T11:41:03.678Z,2.97
2017-10-29T11:43:31.182Z,3.30
2017-10-29T11:45:59.440Z,1.97
2017-10-29T11:48:26.923Z,1.47
2017-10-29T11:50:55.137Z,1.00
2017-10-29T11:53:22.666Z,2.00
2017-10-29T11:55:51.071Z,1.80
2017-10-29T11:58:18.516Z,1.60
2017-10-29T12:00:45.978Z,2.10
2017-10-29T12:03:14.244Z,1.70
2017-10-29T12:05:41.697Z,1.83
2017-10-29T12:08:09.113Z,1.30
2017-10-29T12:10:36.715Z,2.03
2017-10-29T12:13:04.169Z,0.80
2017-10-29T12:15:31.644Z,2.30
2017-10-29T12:17:59.119Z,2.10
2017-10-29T12:20:26.741Z,1.80
2017-10-29T12:22:54.193Z,2.47
2017-10-29T12:25:21.678Z,1.60
2017-10-29T12:27:49.150Z,5.63
2017-10-29T12:30:16.719Z,3.13
2017-10-29T12:32:44.215Z,1.27
2017-10-29T12:35:12.478Z,1.10
2017-10-29T12:37:39.959Z,1.50
2017-10-29T12:40:08.266Z,1.77
2017-10-29T12:42:35.666Z,2.50
2017-10-29T12:45:03.162Z,1.70
2017-10-29T12:47:31.541Z,1.53
2017-10-29T12:49:59.009Z,1.33
2017-10-29T12:52:27.233Z,1.40
2017-10-29T12:54:54.739Z,2.27
2017-10-29T12:57:22.223Z,1.80
2017-10-29T12:59:49.680Z,1.43
2017-10-29T13:02:17.922Z,2.20
2017-10-29T13:04:45.388Z,1.30
2017-10-29T13:07:12.890Z,2.67
2017-10-29T13:09:40.360Z,1.70
2017-10-29T13:12:07.856Z,1.47
2017-10-29T13:14:35.364Z,1.20
2017-10-29T13:17:03.608Z,2.17
2017-10-29T13:19:31.090Z,1.97
2017-10-29T13:21:58.597Z,1.60
2017-10-29T13:24:26.191Z,1.50
2017-10-29T13:26:53.612Z,2.87
2017-10-29T13:29:21.142Z,1.13
2017-10-29T13:31:48.586Z,1.10
2017-10-29T13:34:16.039Z,2.73
2017-10-29T13:36:43.541Z,1.80
2017-10-29T13:39:11.838Z,1.50
2017-10-29T13:41:40.072Z,0.93
2017-10-29T13:44:07.534Z,2.07
2017-10-29T13:46:35.092Z,2.27
2017-10-29T13:49:02.612Z,1.37
2017-10-29T13:51:30.108Z,1.20
2017-10-29T13:53:57.585Z,1.40
2017-10-29T13:56:25.112Z,1.77
2017-10-29T13:58:52.571Z,1.03
2017-10-29T14:01:20.040Z,1.40
2017-10-29T14:03:47.530Z,2.07
2017-10-29T14:06:15.033Z,1.53
2017-10-29T14:08:42.489Z,2.20
2017-10-29T14:11:10.786Z,1.47
2017-10-29T14:13:38.249Z,1.13
2017-10-29T14:16:06.582Z,1.60
2017-10-29T14:18:34.040Z,1.20
2017-10-29T14:21:01.692Z,1.10
2017-10-29T14:23:29.211Z,1.90
2017-10-29T14:25:56.715Z,1.40
2017-10-29T14:28:24.579Z,1.20
2017-10-29T14:30:51.998Z,1.67
2017-10-29T14:33:19.445Z,1.13
2017-10-29T14:35:46.963Z,2.20
2017-10-29T14:38:15.353Z,1.40
2017-10-29T14:40:42.824Z,1.23
2017-10-29T14:43:10.326Z,2.23
2017-10-29T14:45:37.796Z,1.20
2017-10-29T14:48:06.762Z,1.93
2017-10-29T14:50:34.237Z,2.40
2017-10-29T14:53:01.711Z,0.90
2017-10-29T14:55:29.188Z,0.90
2017-10-29T14:57:56.661Z,1.07
2017-10-29T15:00:24.892Z,2.03
2017-10-29T15:02:52.432Z,1.90
2017-10-29T15:05:20.656Z,1.20
2017-10-29T15:07:48.129Z,1.57
2017-10-29T15:10:15.626Z,1.40
2017-10-29T15:12:43.122Z,1.70
2017-10-29T15:15:10.692Z,2.90
2017-10-29T15:17:38.168Z,3.27
2017-10-29T15:20:05.655Z,1.93
2017-10-29T15:22:33.903Z,1.93
2017-10-29T15:25:01.388Z,4.90
2017-10-29T15:27:28.865Z,2.67
2017-10-29T15:29:57.180Z,1.63
2017-10-29T15:32:24.671Z,1.40
2017-10-29T15:34:52.140Z,1.13
2017-10-29T15:37:19.616Z,1.80
2017-10-29T15:39:47.106Z,1.80
2017-10-29T15:42:15.418Z,2.03
2017-10-29T15:44:43.642Z,4.53
2017-10-29T15:47:11.890Z,2.80
2017-10-29T15:49:39.428Z,2.70
2017-10-29T15:52:07.689Z,2.30
2017-10-29T15:54:35.932Z,1.63
2017-10-29T15:57:03.569Z,1.50
2017-10-29T15:59:31.085Z,1.30
2017-10-29T16:01:58.548Z,2.00
2017-10-29T16:04:26.059Z,1.53
2017-10-29T16:06:53.583Z,2.43
2017-10-29T16:09:21.052Z,3.07
2017-10-29T16:11:48.582Z,2.50
2017-10-29T16:14:16.050Z,4.27
2017-10-29T16:16:44.304Z,5.10
2017-10-29T16:19:11.831Z,3.10
2017-10-29T16:21:39.222Z,3.20
2017-10-29T16:24:06.713Z,4.23
2017-10-29T16:26:34.219Z,3.60
2017-10-29T16:29:01.657Z,4.10
2017-10-29T16:31:29.884Z,3.37
2017-10-29T16:33:57.528Z,3.63
2017-10-29T16:36:25.778Z,2.07
2017-10-29T16:38:53.276Z,1.43
2017-10-29T16:41:20.760Z,1.17
2017-10-29T16:43:48.289Z,1.73
2017-10-29T16:46:16.500Z,2.10
2017-10-29T16:48:43.947Z,1.60
2017-10-29T16:51:11.442Z,1.40
2017-10-29T16:53:39.181Z,1.37
2017-10-29T16:56:06.630Z,1.90
2017-10-29T16:58:34.889Z,1.10
2017-10-29T17:01:02.429Z,3.53
2017-10-29T17:03:29.922Z,1.20
2017-10-29T17:05:57.348Z,1.63
2017-10-29T17:08:24.837Z,1.93
2017-10-29T17:10:52.379Z,2.07
2017-10-29T17:13:19.860Z,2.07
2017-10-29T17:15:47.445Z,1.23
2017-10-29T17:18:15.680Z,1.83
2017-10-29T17:20:43.115Z,2.53
2017-10-29T17:23:10.783Z,2.10
2017-10-29T17:25:38.302Z,2.17
2017-10-29T17:28:05.750Z,2.47
2017-10-29T17:30:34.780Z,2.77
2017-10-29T17:33:03.008Z,1.63
2017-10-29T17:35:30.478Z,1.63
2017-10-29T17:37:57.991Z,3.47
2017-10-29T17:40:25.626Z,2.40
2017-10-29T17:42:53.783Z,2.40
2017-10-29T17:45:21.307Z,1.93
2017-10-29T17:47:48.778Z,2.03
2017-10-29T17:50:16.426Z,1.27
2017-10-29T17:52:43.880Z,1.40
2017-10-29T17:55:12.132Z,2.63
2017-10-29T17:57:39.633Z,1.80
2017-10-29T18:00:07.140Z,2.10
2017-10-29T18:02:34.610Z,2.90
2017-10-29T18:05:02.119Z,2.63
2017-10-29T18:07:30.350Z,2.47
2017-10-29T18:09:57.859Z,2.17
2017-10-29T18:12:25.288Z,2.07
2017-10-29T18:14:52.753Z,2.90
2017-10-29T18:17:20.292Z,2.40
2017-10-29T18:19:47.795Z,2.63
2017-10-29T18:22:15.266Z,1.57
2017-10-29T18:24:43.507Z,1.37
2017-10-29T18:27:10.964Z,2.10
2017-10-29T18:29:38.475Z,2.50
2017-10-29T18:32:06.711Z,1.73
2017-10-29T18:34:34.239Z,2.17
2017-10-29T18:37:01.713Z,2.80
2017-10-29T18:39:29.197Z,1.70
2017-10-29T18:41:56.669Z,2.67
2017-10-29T18:44:24.139Z,2.33
2017-10-29T18:46:51.644Z,2.37
2017-10-29T18:49:19.167Z,2.10
2017-10-29T18:51:46.609Z,1.93
2017-10-29T18:54:14.055Z,2.37
2017-10-29T18:56:41.538Z,2.17
2017-10-29T18:59:09.022Z,2.20
2017-10-29T19:01:38.019Z,2.03
2017-10-29T19:04:05.466Z,2.00
2017-10-29T19:06:32.984Z,2.90
2017-10-29T19:09:01.229Z,2.60
2017-10-29T19:11:28.709Z,1.50
2017-10-29T19:13:56.967Z,1.60
2017-10-29T19:16:24.459Z,1.53
2017-10-29T19:18:53.407Z,2.10
2017-10-29T19:21:20.902Z,1.43
2017-10-29T19:23:48.412Z,1.40
2017-10-29T19:26:15.863Z,2.70
2017-10-29T19:28:43.325Z,2.90
2017-10-29T19:31:10.859Z,1.73
2017-10-29T19:33:38.273Z,2.13
2017-10-29T19:36:05.742Z,2.03
2017-10-29T19:38:33.227Z,1.70
2017-10-29T19:41:00.711Z,2.30
2017-10-29T19:43:28.926Z,1.77
2017-10-29T19:45:56.453Z,1.80
2017-10-29T19:48:23.923Z,3.13
2017-10-29T19:50:52.132Z,2.50
2017-10-29T19:53:19.653Z,2.03
2017-10-29T19:55:47.098Z,2.30
2017-10-29T19:58:14.591Z,2.40
2017-10-29T20:00:42.020Z,1.63
2017-10-29T20:03:09.526Z,3.10
2017-10-29T20:05:37.707Z,3.23
2017-10-29T20:08:05.238Z,2.07
2017-10-29T20:10:32.678Z,1.87
2017-10-29T20:13:00.164Z,2.40
2017-10-29T20:15:28.419Z,2.10
2017-10-29T20:17:55.968Z,1.90
2017-10-29T20:20:23.490Z,2.30
2017-10-29T20:22:51.769Z,2.63
2017-10-29T20:25:20.060Z,4.73
2017-10-29T20:27:47.555Z,3.40
2017-10-29T20:30:15.745Z,3.10
2017-10-29T20:32:43.214Z,3.00
2017-10-29T20:35:10.763Z,2.87
2017-10-29T20:37:38.217Z,2.80
2017-10-29T20:40:05.748Z,2.23
2017-10-29T20:42:33.210Z,3.30
2017-10-29T20:45:00.629Z,2.80
2017-10-29T20:47:28.131Z,4.10
2017-10-29T20:49:56.371Z,3.70
2017-10-29T20:52:23.825Z,2.73
2017-10-29T20:54:51.314Z,3.00
2017-10-29T20:57:18.776Z,2.70
2017-10-29T20:59:46.190Z,2.67
2017-10-29T21:02:13.715Z,2.70
2017-10-29T21:04:41.966Z,3.37
2017-10-29T21:07:09.472Z,3.40
2017-10-29T21:09:37.716Z,2.70
2017-10-29T21:12:05.986Z,2.63
2017-10-29T21:14:33.443Z,2.23
2017-10-29T21:17:00.921Z,1.53
2017-10-29T21:19:28.434Z,2.40
2017-10-29T21:21:55.948Z,2.10
2017-10-29T21:24:23.431Z,1.93
2017-10-29T21:26:50.850Z,2.20
2017-10-29T21:29:18.314Z,2.10
2017-10-29T21:31:45.814Z,2.27
2017-10-29T21:34:13.306Z,2.60
2017-10-29T21:36:40.808Z,2.30
2017-10-29T21:39:09.119Z,1.57
2017-10-29T21:41:37.402Z,2.30
2017-10-29T21:44:04.884Z,1.97
2017-10-29T21:46:32.412Z,2.30
2017-10-29T21:48:59.876Z,3.20
2017-10-29T21:51:27.493Z,3.17
2017-10-29T21:53:54.984Z,2.87
2017-10-29T21:56:22.499Z,2.90
2017-10-29T21:58:50.792Z,2.60
2017-10-29T22:01:18.669Z,2.57
2017-10-29T22:03:46.093Z,2.70
2017-10-29T22:06:13.563Z,2.30
2017-10-29T22:08:41.842Z,3.00
2017-10-29T22:11:09.434Z,1.80
2017-10-29T22:13:36.927Z,1.77
2017-10-29T22:16:04.394Z,2.47
2017-10-29T22:18:31.883Z,2.27
2017-10-29T22:21:00.843Z,2.07
2017-10-29T22:23:28.397Z,2.50
2017-10-29T22:25:55.840Z,1.87
2017-10-29T22:28:23.284Z,1.63
2017-10-29T22:30:51.582Z,2.40
2017-10-29T22:33:19.809Z,1.67
2017-10-29T22:35:47.287Z,1.80
2017-10-29T22:38:14.797Z,2.00
2017-10-29T22:40:42.250Z,2.07
2017-10-29T22:43:09.759Z,2.13
2017-10-29T22:45:37.226Z,1.97
2017-10-29T22:48:04.795Z,2.37
2017-10-29T22:50:32.218Z,2.53
2017-10-29T22:52:59.793Z,2.10
2017-10-29T22:55:27.960Z,2.20
2017-10-29T22:57:55.473Z,1.70
2017-10-29T23:00:24.452Z,1.60
2017-10-29T23:02:51.936Z,1.60
2017-10-29T23:05:19.430Z,2.27
2017-10-29T23:07:47.890Z,2.43
2017-10-29T23:10:15.432Z,2.33
2017-10-29T23:12:42.934Z,2.13
2017-10-29T23:15:11.192Z,2.00
2017-10-29T23:17:38.632Z,1.27
2017-10-29T23:20:06.087Z,2.00
2017-10-29T23:22:33.596Z,1.93
2017-10-29T23:25:01.097Z,2.50
2017-10-29T23:27:29.277Z,2.17
2017-10-29T23:29:56.762Z,2.03
2017-10-29T23:32:24.211Z,3.47
2017-10-29T23:34:51.719Z,1.57
2017-10-29T23:37:19.293Z,1.93
2017-10-29T23:39:47.528Z,1.97
2017-10-29T23:42:15.010Z,2.23
2017-10-29T23:44:42.506Z,3.17
2017-10-29T23:47:09.979Z,2.17
2017-10-29T23:49:38.003Z,1.40
2017-10-29T23:52:05.398Z,2.07
2017-10-29T23:54:33.622Z,1.70
2017-10-29T23:57:01.116Z,2.57
2017-10-29T23:59:28.598Z,2.97
